createdAt,value
2023-04-14T00:00:40.193Z,99.99
2023-04-14T00:01:40.187Z,99.99
2023-04-14T00:02:40.370Z,99.99
2023-04-14T00:03:40.257Z,99.99
2023-04-14T00:04:40.272Z,99.99
2023-04-14T00:05:40.198Z,99.99
2023-04-14T00:06:40.195Z,99.99
2023-04-14T00:07:40.203Z,99.99
2023-04-14T00:08:40.206Z,99.99
2023-04-14T00:09:40.231Z,99.99
2023-04-14T00:10:40.221Z,99.99
2023-04-14T00:11:40.223Z,99.99
2023-04-14T00:12:40.210Z,99.99
2023-04-14T00:13:40.220Z,99.99
2023-04-14T00:14:40.214Z,99.99
2023-04-14T00:15:40.222Z,99.99
2023-04-14T00:16:40.287Z,99.99
2023-04-14T00:17:40.331Z,99.99
2023-04-14T00:18:40.223Z,99.99
2023-04-14T00:19:40.236Z,99.99
2023-04-14T00:20:40.232Z,99.99
2023-04-14T00:21:40.237Z,99.99
2023-04-14T00:22:40.265Z,99.99
2023-04-14T00:23:40.248Z,99.99
2023-04-14T00:24:40.251Z,99.99
2023-04-14T00:25:40.287Z,99.99
2023-04-14T00:26:40.254Z,99.99
2023-04-14T00:27:40.271Z,99.99
2023-04-14T00:28:40.261Z,99.99
2023-04-14T00:29:40.261Z,99.99
2023-04-14T00:30:40.257Z,99.99
2023-04-14T00:31:40.326Z,99.99
2023-04-14T00:32:40.297Z,99.99
2023-04-14T00:33:40.263Z,99.99
2023-04-14T00:34:40.261Z,99.99
2023-04-14T00:35:40.267Z,99.99
2023-04-14T00:36:40.268Z,99.99
2023-04-14T00:37:40.272Z,99.99
2023-04-14T00:38:40.271Z,99.99
2023-04-14T00:39:40.286Z,99.99
2023-04-14T00:40:40.276Z,99.99
2023-04-14T00:41:40.314Z,99.99
2023-04-14T00:42:40.280Z,99.99
2023-04-14T00:43:40.287Z,99.99
2023-04-14T00:44:40.284Z,99.99
2023-04-14T00:45:40.289Z,99.99
2023-04-14T00:46:40.345Z,99.99
2023-04-14T00:47:40.327Z,99.99
2023-04-14T00:48:40.294Z,99.99
2023-04-14T00:49:40.298Z,99.99
2023-04-14T00:50:40.313Z,99.99
2023-04-14T00:51:40.318Z,99.99
2023-04-14T00:52:40.305Z,99.99
2023-04-14T00:53:40.309Z,99.99
2023-04-14T00:54:40.307Z,99.99
2023-04-14T00:55:40.316Z,99.99
2023-04-14T00:56:40.315Z,99.99
2023-04-14T00:57:40.342Z,99.99
2023-04-14T00:58:40.320Z,99.99
2023-04-14T00:59:40.322Z,99.99
2023-04-14T01:00:40.328Z,99.99
2023-04-14T01:01:40.341Z,99.99
2023-04-14T01:02:40.687Z,99.99
2023-04-14T01:03:40.392Z,99.99
2023-04-14T01:04:52.652Z,99.99
2023-04-14T01:05:40.335Z,99.99
2023-04-14T01:06:40.333Z,99.99
2023-04-14T01:07:40.351Z,99.99
2023-04-14T01:08:40.339Z,99.99
2023-04-14T01:09:40.343Z,99.99
2023-04-14T01:10:40.343Z,99.99
2023-04-14T01:11:40.347Z,99.99
2023-04-14T01:12:40.346Z,99.99
2023-04-14T01:13:40.371Z,99.99
2023-04-14T01:14:40.358Z,99.99
2023-04-14T01:15:40.372Z,99.99
2023-04-14T01:16:40.354Z,99.99
2023-04-14T01:17:40.384Z,99.99
2023-04-14T01:18:40.359Z,99.99
2023-04-14T01:19:40.369Z,99.99
2023-04-14T01:20:40.361Z,99.99
2023-04-14T01:21:40.442Z,99.99
2023-04-14T01:22:40.369Z,99.99
2023-04-14T01:23:40.375Z,99.99
2023-04-14T01:24:40.371Z,99.99
2023-04-14T01:25:40.374Z,99.99
2023-04-14T01:26:40.377Z,99.99
2023-04-14T01:27:40.385Z,99.99
2023-04-14T01:28:40.378Z,99.99
2023-04-14T01:29:40.406Z,99.99
2023-04-14T01:30:40.383Z,99.99
2023-04-14T01:31:40.415Z,99.99
2023-04-14T01:32:40.429Z,99.99
2023-04-14T01:33:40.404Z,99.99
2023-04-14T01:34:40.426Z,99.99
2023-04-14T01:35:40.405Z,99.99
2023-04-14T01:36:40.397Z,99.99
2023-04-14T01:37:40.400Z,99.99
2023-04-14T01:38:40.404Z,99.94
2023-04-14T01:39:40.407Z,99.94
2023-04-14T01:40:40.404Z,99.99
2023-04-14T01:41:40.410Z,99.99
2023-04-14T01:42:40.408Z,99.99
2023-04-14T01:43:40.424Z,99.99
2023-04-14T01:44:40.417Z,99.99
2023-04-14T01:45:40.486Z,99.99
2023-04-14T01:46:40.416Z,99.99
2023-04-14T01:47:40.441Z,99.99
2023-04-14T01:48:40.420Z,99.99
2023-04-14T01:49:40.491Z,99.99
2023-04-14T01:50:40.426Z,99.99
2023-04-14T01:51:40.432Z,99.99
2023-04-14T01:52:40.433Z,99.99
2023-04-14T01:53:40.458Z,99.99
2023-04-14T01:54:40.434Z,99.98
2023-04-14T01:55:40.444Z,99.99
2023-04-14T01:56:40.450Z,99.99
2023-04-14T01:57:40.446Z,99.99
2023-04-14T01:58:40.455Z,99.99
2023-04-14T01:59:40.454Z,99.99
2023-04-14T02:00:40.529Z,99.99
2023-04-14T02:01:40.478Z,99.99
2023-04-14T02:02:40.523Z,99.99
2023-04-14T02:03:40.565Z,99.99
2023-04-14T02:04:40.468Z,99.99
2023-04-14T02:05:40.464Z,99.99
2023-04-14T02:06:40.464Z,99.99
2023-04-14T02:07:40.465Z,99.99
2023-04-14T02:08:40.463Z,99.99
2023-04-14T02:09:40.475Z,99.99
2023-04-14T02:10:40.469Z,99.99
2023-04-14T02:11:40.480Z,99.99
2023-04-14T02:12:40.477Z,99.99
2023-04-14T02:13:40.480Z,99.99
2023-04-14T02:14:40.478Z,99.99
2023-04-14T02:15:40.478Z,99.99
2023-04-14T02:16:40.552Z,99.99
2023-04-14T02:17:40.523Z,99.99
2023-04-14T02:18:40.497Z,99.99
2023-04-14T02:19:40.492Z,99.99
2023-04-14T02:20:40.493Z,99.99
2023-04-14T02:21:40.489Z,99.99
2023-04-14T02:22:40.522Z,99.99
2023-04-14T02:23:40.492Z,99.99
2023-04-14T02:24:40.505Z,99.99
2023-04-14T02:25:40.514Z,99.99
2023-04-14T02:26:40.506Z,99.99
2023-04-14T02:27:40.567Z,99.99
2023-04-14T02:28:40.507Z,99.99
2023-04-14T02:29:40.517Z,99.99
2023-04-14T02:30:40.561Z,99.99
2023-04-14T02:31:40.509Z,99.99
2023-04-14T02:32:40.589Z,99.99
2023-04-14T02:33:40.544Z,99.99
2023-04-14T02:34:40.531Z,99.99
2023-04-14T02:35:40.556Z,99.99
2023-04-14T02:36:40.533Z,99.99
2023-04-14T02:37:40.528Z,99.99
2023-04-14T02:38:40.539Z,99.99
2023-04-14T02:39:40.524Z,99.99
2023-04-14T02:40:40.540Z,99.99
2023-04-14T02:41:40.546Z,99.99
2023-04-14T02:42:40.540Z,99.99
2023-04-14T02:43:40.541Z,99.99
2023-04-14T02:44:40.542Z,99.99
2023-04-14T02:45:40.563Z,99.99
2023-04-14T02:46:40.596Z,99.99
2023-04-14T02:47:40.583Z,99.99
2023-04-14T02:48:40.554Z,99.99
2023-04-14T02:49:40.574Z,99.99
2023-04-14T02:50:40.556Z,99.99
2023-04-14T02:51:40.557Z,99.99
2023-04-14T02:52:40.558Z,99.99
2023-04-14T02:53:40.560Z,99.99
2023-04-14T02:54:40.573Z,99.99
2023-04-14T02:55:40.576Z,99.99
2023-04-14T02:56:40.566Z,99.99
2023-04-14T02:57:40.580Z,99.99
2023-04-14T02:58:40.573Z,99.99
2023-04-14T02:59:40.571Z,99.75
2023-04-14T03:00:40.574Z,99.99
2023-04-14T03:01:40.601Z,99.99
2023-04-14T03:02:40.628Z,99.99
2023-04-14T03:03:40.605Z,99.99
2023-04-14T03:04:40.609Z,99.99
2023-04-14T03:05:40.603Z,99.99
2023-04-14T03:06:40.593Z,99.99
2023-04-14T03:07:40.594Z,99.99
2023-04-14T03:08:40.597Z,99.99
2023-04-14T03:09:40.595Z,99.99
2023-04-14T03:10:40.599Z,99.99
2023-04-14T03:11:40.595Z,99.99
2023-04-14T03:12:40.602Z,99.99
2023-04-14T03:13:40.617Z,99.41
2023-04-14T03:14:40.605Z,98.38
2023-04-14T03:15:40.643Z,98.66
2023-04-14T03:16:40.610Z,98.28
2023-04-14T03:17:40.624Z,97.43
2023-04-14T03:18:40.623Z,96.39
2023-04-14T03:19:40.626Z,96.49
2023-04-14T03:20:40.634Z,96.49
2023-04-14T03:21:40.641Z,99.22
2023-04-14T03:22:40.672Z,99.99
2023-04-14T03:23:40.624Z,99.51
2023-04-14T03:24:40.659Z,97.72
2023-04-14T03:25:40.705Z,96.20
2023-04-14T03:26:40.642Z,94.70
2023-04-14T03:27:40.631Z,94.51
2023-04-14T03:28:40.635Z,94.89
2023-04-14T03:29:40.631Z,95.73
2023-04-14T03:30:40.636Z,95.73
2023-04-14T03:31:40.718Z,96.86
2023-04-14T03:32:40.675Z,96.30
2023-04-14T03:33:40.648Z,96.58
2023-04-14T03:34:40.644Z,97.05
2023-04-14T03:35:40.642Z,95.36
2023-04-14T03:36:40.647Z,94.70
2023-04-14T03:37:40.676Z,92.90
2023-04-14T03:38:40.661Z,93.18
2023-04-14T03:39:40.654Z,92.43
2023-04-14T03:40:40.662Z,92.61
2023-04-14T03:41:40.664Z,93.09
2023-04-14T03:42:40.682Z,91.96
2023-04-14T03:43:40.664Z,92.14
2023-04-14T03:44:40.666Z,92.61
2023-04-14T03:45:40.664Z,92.99
2023-04-14T03:46:40.745Z,93.09
2023-04-14T03:47:40.706Z,92.80
2023-04-14T03:48:40.671Z,92.99
2023-04-14T03:49:40.677Z,92.33
2023-04-14T03:50:40.675Z,92.43
2023-04-14T03:51:40.677Z,92.90
2023-04-14T03:52:40.710Z,93.66
2023-04-14T03:53:40.709Z,94.03
2023-04-14T03:54:40.688Z,94.70
2023-04-14T03:55:40.696Z,94.60
2023-04-14T03:56:40.692Z,94.60
2023-04-14T03:57:40.724Z,94.60
2023-04-14T03:58:40.698Z,94.89
2023-04-14T03:59:40.704Z,95.45
2023-04-14T04:00:40.701Z,95.17
2023-04-14T04:01:40.712Z,95.36
2023-04-14T04:02:40.886Z,96.01
2023-04-14T04:03:40.906Z,95.92
2023-04-14T04:04:40.795Z,96.39
2023-04-14T04:05:40.739Z,97.05
2023-04-14T04:06:40.710Z,97.05
2023-04-14T04:07:40.706Z,96.86
2023-04-14T04:08:40.723Z,96.49
2023-04-14T04:09:40.746Z,96.68
2023-04-14T04:10:40.715Z,96.01
2023-04-14T04:11:40.725Z,96.96
2023-04-14T04:12:40.719Z,96.49
2023-04-14T04:13:40.720Z,95.83
2023-04-14T04:14:40.731Z,96.30
2023-04-14T04:15:40.725Z,96.30
2023-04-14T04:16:40.774Z,96.11
2023-04-14T04:17:40.752Z,96.01
2023-04-14T04:18:40.737Z,97.15
2023-04-14T04:19:40.732Z,97.15
2023-04-14T04:20:40.742Z,96.39
2023-04-14T04:21:40.733Z,96.86
2023-04-14T04:22:40.746Z,96.39
2023-04-14T04:23:40.742Z,96.86
2023-04-14T04:24:40.782Z,96.20
2023-04-14T04:25:40.765Z,96.49
2023-04-14T04:26:40.766Z,96.20
2023-04-14T04:27:40.752Z,96.30
2023-04-14T04:28:40.750Z,96.30
2023-04-14T04:29:40.749Z,96.58
2023-04-14T04:30:40.760Z,95.92
2023-04-14T04:31:40.775Z,96.20
2023-04-14T04:32:40.811Z,95.54
2023-04-14T04:33:40.766Z,95.54
2023-04-14T04:34:40.763Z,95.54
2023-04-14T04:35:40.760Z,95.45
2023-04-14T04:36:40.770Z,95.07
2023-04-14T04:37:40.775Z,95.17
2023-04-14T04:38:40.771Z,95.17
2023-04-14T04:39:40.773Z,94.89
2023-04-14T04:40:40.785Z,94.89
2023-04-14T04:41:40.802Z,94.98
2023-04-14T04:42:40.832Z,95.83
2023-04-14T04:43:40.778Z,95.17
2023-04-14T04:44:40.793Z,94.98
2023-04-14T04:45:40.810Z,94.79
2023-04-14T04:46:40.810Z,94.70
2023-04-14T04:47:40.803Z,94.60
2023-04-14T04:48:40.791Z,94.41
2023-04-14T04:49:40.790Z,93.75
2023-04-14T04:50:40.794Z,93.84
2023-04-14T04:51:40.797Z,93.84
2023-04-14T04:52:40.795Z,93.56
2023-04-14T04:53:40.809Z,93.09
2023-04-14T04:54:40.798Z,92.14
2023-04-14T04:55:40.799Z,92.33
2023-04-14T04:56:40.808Z,91.77
2023-04-14T04:57:40.825Z,92.14
2023-04-14T04:58:40.807Z,92.24
2023-04-14T04:59:40.804Z,92.90
2023-04-14T05:00:40.829Z,93.09
2023-04-14T05:01:40.845Z,92.90
2023-04-14T05:02:40.931Z,92.90
2023-04-14T05:03:40.811Z,93.37
2023-04-14T05:04:40.876Z,93.37
2023-04-14T05:05:40.817Z,93.09
2023-04-14T05:06:40.830Z,93.94
2023-04-14T05:07:40.839Z,93.66
2023-04-14T05:08:40.828Z,93.94
2023-04-14T05:09:40.827Z,92.99
2023-04-14T05:10:40.840Z,93.37
2023-04-14T05:11:40.830Z,92.61
2023-04-14T05:12:40.845Z,92.24
2023-04-14T05:13:40.850Z,91.77
2023-04-14T05:14:40.837Z,92.43
2023-04-14T05:15:40.854Z,91.20
2023-04-14T05:16:40.853Z,90.16
2023-04-14T05:17:40.903Z,89.69
2023-04-14T05:18:40.852Z,89.12
2023-04-14T05:19:40.849Z,89.40
2023-04-14T05:20:40.848Z,88.84
2023-04-14T05:21:40.848Z,88.84
2023-04-14T05:22:40.854Z,89.22
2023-04-14T05:23:40.851Z,88.46
2023-04-14T05:24:40.855Z,87.90
2023-04-14T05:25:40.864Z,87.24
2023-04-14T05:27:40.856Z,86.86
2023-04-14T05:28:40.859Z,86.38
2023-04-14T05:29:40.944Z,86.48
2023-04-14T05:30:40.907Z,85.72
2023-04-14T05:31:41.031Z,85.25
2023-04-14T05:32:40.873Z,84.50
2023-04-14T05:33:40.870Z,84.31
2023-04-14T05:34:40.876Z,84.31
2023-04-14T05:35:40.865Z,84.03
2023-04-14T05:36:40.875Z,84.03
2023-04-14T05:37:40.875Z,84.50
2023-04-14T05:38:40.883Z,83.93
2023-04-14T05:39:40.874Z,83.55
2023-04-14T05:40:40.889Z,83.08
2023-04-14T05:41:40.887Z,82.89
2023-04-14T05:42:40.893Z,83.74
2023-04-14T05:43:40.886Z,83.08
2023-04-14T05:44:40.957Z,82.80
2023-04-14T05:45:40.900Z,82.70
2023-04-14T05:46:40.948Z,83.17
2023-04-14T05:47:40.917Z,83.46
2023-04-14T05:48:40.894Z,82.99
2023-04-14T05:49:40.889Z,83.08
2023-04-14T05:50:40.894Z,82.89
2023-04-14T05:51:40.917Z,83.55
2023-04-14T05:52:40.899Z,82.51
2023-04-14T05:53:40.896Z,82.80
2023-04-14T05:54:43.003Z,82.51
2023-04-14T05:55:40.900Z,82.23
2023-04-14T05:56:40.924Z,82.23
2023-04-14T05:57:40.916Z,81.48
2023-04-14T05:58:40.908Z,81.29
2023-04-14T05:59:40.906Z,81.38
2023-04-14T06:00:40.911Z,80.82
2023-04-14T06:01:40.978Z,80.76
2023-04-14T06:02:41.209Z,80.29
2023-04-14T06:03:41.174Z,80.38
2023-04-14T06:04:41.092Z,80.15
2023-04-14T06:05:40.917Z,81.20
2023-04-14T06:06:40.922Z,81.10
2023-04-14T06:07:40.916Z,81.20
2023-04-14T06:08:40.927Z,80.91
2023-04-14T06:09:40.919Z,81.20
2023-04-14T06:10:40.928Z,80.15
2023-04-14T06:11:40.935Z,80.53
2023-04-14T06:12:40.945Z,80.63
2023-04-14T06:13:40.931Z,81.20
2023-04-14T06:14:40.943Z,81.33
2023-04-14T06:15:40.933Z,81.20
2023-04-14T06:16:40.953Z,81.04
2023-04-14T06:17:40.979Z,81.14
2023-04-14T06:18:40.941Z,81.04
2023-04-14T06:19:40.948Z,81.04
2023-04-14T06:20:40.947Z,80.85
2023-04-14T06:21:40.945Z,80.85
2023-04-14T06:22:40.956Z,80.38
2023-04-14T06:23:40.956Z,80.00
2023-04-14T06:24:40.955Z,79.16
2023-04-14T06:25:40.971Z,78.40
2023-04-14T06:26:40.964Z,77.45
2023-04-14T06:27:40.968Z,77.83
2023-04-14T06:28:43.296Z,77.83
2023-04-14T06:29:40.975Z,77.93
2023-04-14T06:30:40.964Z,77.74
2023-04-14T06:31:41.033Z,78.12
2023-04-14T06:32:41.016Z,78.02
2023-04-14T06:33:40.991Z,78.40
2023-04-14T06:34:40.970Z,78.78
2023-04-14T06:35:40.996Z,78.50
2023-04-14T06:36:40.973Z,78.40
2023-04-14T06:37:40.983Z,77.83
2023-04-14T06:38:40.983Z,77.17
2023-04-14T06:39:40.991Z,77.74
2023-04-14T06:40:41.003Z,77.83
2023-04-14T06:41:40.988Z,77.97
2023-04-14T06:42:41.000Z,77.50
2023-04-14T06:43:40.992Z,77.21
2023-04-14T06:44:40.991Z,76.17
2023-04-14T06:45:41.021Z,75.98
2023-04-14T06:46:41.002Z,75.70
2023-04-14T06:47:41.077Z,75.79
2023-04-14T06:48:41.006Z,75.89
2023-04-14T06:49:41.122Z,75.32
2023-04-14T06:50:42.623Z,74.62
2023-04-14T06:51:41.020Z,74.66
2023-04-14T06:52:41.020Z,75.70
2023-04-14T06:53:41.021Z,75.89
2023-04-14T06:54:41.018Z,76.36
2023-04-14T06:55:41.045Z,76.45
2023-04-14T06:56:41.049Z,75.70
2023-04-14T06:57:41.043Z,75.32
2023-04-14T06:58:41.053Z,74.47
2023-04-14T06:59:41.032Z,73.90
2023-04-14T07:00:41.045Z,73.62
2023-04-14T07:01:41.059Z,74.19
2023-04-14T07:02:41.117Z,72.58
2023-04-14T07:03:41.044Z,72.39
2023-04-14T07:04:41.175Z,73.05
2023-04-14T07:05:41.069Z,73.62
2023-04-14T07:06:41.069Z,73.71
2023-04-14T07:07:41.067Z,72.77
2023-04-14T07:08:41.065Z,72.49
2023-04-14T07:09:41.078Z,72.96
2023-04-14T07:10:41.059Z,72.96
2023-04-14T07:11:41.069Z,72.30
2023-04-14T07:12:41.073Z,72.77
2023-04-14T07:13:41.117Z,73.24
2023-04-14T07:14:41.082Z,74.85
2023-04-14T07:15:41.180Z,74.47
2023-04-14T07:16:41.093Z,74.19
2023-04-14T07:17:41.125Z,72.67
2023-04-14T07:18:41.086Z,71.64
2023-04-14T07:19:41.091Z,70.00
2023-04-14T07:20:41.101Z,70.31
2023-04-14T07:21:41.146Z,71.26
2023-04-14T07:22:41.101Z,71.54
2023-04-14T07:23:41.113Z,72.20
2023-04-14T07:24:41.115Z,71.73
2023-04-14T07:25:41.110Z,71.35
2023-04-14T07:26:41.110Z,70.75
2023-04-14T07:27:47.317Z,70.28
2023-04-14T07:28:41.124Z,71.22
2023-04-14T07:29:41.127Z,71.92
2023-04-14T07:30:41.126Z,73.33
2023-04-14T07:31:41.219Z,73.90
2023-04-14T07:32:41.177Z,74.38
2023-04-14T07:33:41.135Z,73.81
2023-04-14T07:34:41.139Z,73.33
2023-04-14T07:35:51.024Z,72.67
2023-04-14T07:36:41.141Z,72.77
2023-04-14T07:37:41.161Z,73.81
2023-04-14T07:38:41.143Z,73.62
2023-04-14T07:39:41.146Z,73.52
2023-04-14T07:40:41.146Z,71.83
2023-04-14T07:41:41.155Z,71.54
2023-04-14T07:42:41.157Z,73.05
2023-04-14T07:43:41.158Z,71.73
2023-04-14T07:44:41.174Z,71.26
2023-04-14T07:45:41.166Z,71.45
2023-04-14T07:46:41.266Z,72.39
2023-04-14T07:47:41.194Z,71.73
2023-04-14T07:48:41.172Z,72.67
2023-04-14T07:49:41.192Z,72.77
2023-04-14T07:50:41.177Z,72.49
2023-04-14T07:51:41.185Z,72.86
2023-04-14T07:52:41.193Z,72.77
2023-04-14T07:53:41.214Z,72.67
2023-04-14T07:54:41.192Z,73.66
2023-04-14T07:55:41.202Z,73.14
2023-04-14T07:56:41.197Z,73.33
2023-04-14T07:57:41.216Z,73.24
2023-04-14T07:58:41.208Z,74.09
2023-04-14T07:59:41.221Z,75.83
2023-04-14T08:00:41.209Z,76.40
2023-04-14T08:01:41.225Z,76.31
2023-04-14T08:02:41.329Z,76.78
2023-04-14T08:03:43.589Z,76.02
2023-04-14T08:04:41.245Z,75.55
2023-04-14T08:05:41.277Z,75.45
2023-04-14T08:06:41.225Z,75.31
2023-04-14T08:07:41.239Z,75.31
2023-04-14T08:08:41.231Z,74.74
2023-04-14T08:09:41.261Z,74.36
2023-04-14T08:10:41.253Z,74.41
2023-04-14T08:11:41.244Z,73.75
2023-04-14T08:12:41.253Z,71.48
2023-04-14T08:13:41.252Z,71.30
2023-04-14T08:14:41.256Z,71.95
2023-04-14T08:15:41.258Z,71.20
2023-04-14T08:16:41.361Z,70.16
2023-04-14T08:17:41.293Z,69.49
2023-04-14T08:18:41.269Z,70.73
2023-04-14T08:19:41.277Z,72.24
2023-04-14T08:20:41.273Z,71.86
2023-04-14T08:21:41.304Z,72.62
2023-04-14T08:22:41.284Z,73.28
2023-04-14T08:23:41.294Z,75.07
2023-04-14T08:24:41.294Z,74.69
2023-04-14T08:25:41.403Z,74.17
2023-04-14T08:26:41.295Z,74.07
2023-04-14T08:27:41.301Z,73.60
2023-04-14T08:28:41.340Z,73.66
2023-04-14T08:29:41.317Z,72.52
2023-04-14T08:30:41.312Z,72.14
2023-04-14T08:31:41.392Z,71.39
2023-04-14T08:32:41.369Z,71.11
2023-04-14T08:33:41.332Z,71.48
2023-04-14T08:35:35.617Z,74.51
2023-04-14T08:35:42.562Z,77.34
2023-04-14T08:36:41.340Z,78.71
2023-04-14T08:37:41.341Z,75.59
2023-04-14T08:38:41.341Z,73.32
2023-04-14T08:39:41.351Z,71.95
2023-04-14T08:40:41.356Z,74.88
2023-04-14T08:41:41.374Z,74.88
2023-04-14T08:42:41.354Z,76.21
2023-04-14T08:43:41.364Z,75.78
2023-04-14T08:44:41.361Z,76.72
2023-04-14T08:45:41.398Z,78.52
2023-04-14T08:46:41.367Z,77.67
2023-04-14T08:47:41.429Z,80.51
2023-04-14T08:48:41.377Z,82.15
2023-04-14T08:49:41.427Z,79.50
2023-04-14T08:50:41.948Z,80.45
2023-04-14T08:51:41.391Z,83.10
2023-04-14T08:52:41.398Z,82.91
2023-04-14T08:53:41.401Z,78.56
2023-04-14T08:54:41.400Z,74.58
2023-04-14T08:55:41.458Z,72.69
2023-04-14T08:56:41.451Z,73.83
2023-04-14T08:57:41.551Z,73.35
2023-04-14T08:58:41.422Z,72.31
2023-04-14T08:59:41.430Z,71.93
2023-04-14T09:00:41.427Z,76.48
2023-04-14T09:01:41.477Z,80.55
2023-04-14T09:02:41.627Z,83.20
2023-04-14T09:03:41.716Z,78.94
2023-04-14T09:04:41.534Z,76.29
2023-04-14T09:05:41.459Z,77.89
2023-04-14T09:06:41.454Z,78.85
2023-04-14T09:07:41.464Z,79.88
2023-04-14T09:08:41.463Z,81.21
2023-04-14T09:09:41.473Z,83.39
2023-04-14T09:10:41.473Z,79.22
2023-04-14T09:11:41.485Z,80.93
2023-04-14T09:12:42.081Z,80.55
2023-04-14T09:13:41.519Z,73.64
2023-04-14T09:14:41.492Z,70.20
2023-04-14T09:15:41.507Z,70.67
2023-04-14T09:16:41.533Z,71.52
2023-04-14T09:17:41.551Z,74.45
2023-04-14T09:18:41.521Z,78.65
2023-04-14T09:20:35.463Z,77.99
2023-04-14T09:20:42.104Z,75.05
2023-04-14T09:21:52.761Z,73.35
2023-04-14T09:22:41.532Z,75.43
2023-04-14T09:23:41.544Z,73.73
2023-04-14T09:24:41.535Z,70.79
2023-04-14T09:25:41.553Z,70.98
2023-04-14T09:26:41.552Z,73.07
2023-04-14T09:27:41.553Z,73.07
2023-04-14T09:28:41.564Z,76.48
2023-04-14T09:29:41.587Z,75.05
2023-04-14T09:30:41.667Z,73.35
2023-04-14T09:31:41.671Z,75.53
2023-04-14T09:32:41.610Z,73.92
2023-04-14T09:33:41.611Z,71.99
2023-04-14T09:34:41.582Z,76.57
2023-04-14T09:35:41.589Z,77.89
2023-04-14T09:36:41.588Z,79.22
2023-04-14T09:37:41.627Z,82.34
2023-04-14T09:38:41.600Z,82.76
2023-04-14T09:39:41.607Z,78.18
2023-04-14T09:40:41.616Z,76.19
2023-04-14T09:41:41.624Z,76.76
2023-04-14T09:42:41.623Z,76.48
2023-04-14T09:43:41.647Z,76.57
2023-04-14T09:44:41.627Z,77.70
2023-04-14T09:45:41.658Z,78.98
2023-04-14T09:46:41.671Z,78.31
2023-04-14T09:47:41.675Z,74.87
2023-04-14T09:48:41.649Z,78.59
2023-04-14T09:49:41.657Z,78.79
2023-04-14T09:50:41.657Z,78.13
2023-04-14T09:51:41.664Z,78.59
2023-04-14T09:52:41.673Z,78.22
2023-04-14T09:53:41.684Z,76.10
2023-04-14T09:54:41.681Z,74.96
2023-04-14T09:55:41.684Z,79.17
2023-04-14T09:56:41.688Z,80.40
2023-04-14T09:57:41.696Z,74.52
2023-04-14T09:58:41.710Z,76.42
2023-04-14T09:59:41.708Z,75.05
2023-04-14T10:00:41.707Z,74.58
2023-04-14T10:01:41.786Z,75.81
2023-04-14T10:02:41.773Z,74.49
2023-04-14T10:03:41.770Z,76.38
2023-04-14T10:04:41.754Z,76.86
2023-04-14T10:05:41.733Z,76.42
2023-04-14T10:06:41.734Z,77.94
2023-04-14T10:07:41.742Z,78.69
2023-04-14T10:08:41.743Z,80.02
2023-04-14T10:09:41.755Z,82.29
2023-04-14T10:10:41.755Z,83.14
2023-04-14T10:11:41.767Z,79.96
2023-04-14T10:12:41.764Z,75.76
2023-04-14T10:13:41.786Z,77.56
2023-04-14T10:14:41.802Z,77.27
2023-04-14T10:15:41.823Z,73.83
2023-04-14T10:16:41.786Z,74.58
2023-04-14T10:17:41.844Z,73.98
2023-04-14T10:18:41.798Z,73.79
2023-04-14T10:19:41.807Z,73.22
2023-04-14T10:20:41.807Z,78.27
2023-04-14T10:21:41.811Z,82.29
2023-04-14T10:22:41.832Z,80.96
2023-04-14T10:23:41.826Z,79.17
2023-04-14T10:24:41.826Z,80.63
2023-04-14T10:25:41.833Z,79.21
2023-04-14T10:26:41.836Z,77.97
2023-04-14T10:27:41.843Z,73.20
2023-04-14T10:28:41.851Z,74.52
2023-04-14T10:29:41.853Z,73.01
2023-04-14T10:30:41.854Z,74.90
2023-04-14T10:31:41.892Z,73.96
2023-04-14T10:32:41.883Z,76.27
2023-04-14T10:33:41.900Z,77.06
2023-04-14T10:34:42.704Z,75.26
2023-04-14T10:35:41.934Z,71.59
2023-04-14T10:36:41.886Z,72.25
2023-04-14T10:37:41.893Z,74.15
2023-04-14T10:38:41.904Z,73.96
2023-04-14T10:39:41.906Z,74.24
2023-04-14T10:40:41.906Z,74.24
2023-04-14T10:41:41.920Z,71.50
2023-04-14T10:42:41.918Z,70.87
2023-04-14T10:43:41.927Z,73.71
2023-04-14T10:44:41.938Z,75.42
2023-04-14T10:45:41.947Z,79.91
2023-04-14T10:46:41.979Z,78.96
2023-04-14T10:47:42.004Z,72.99
2023-04-14T10:48:41.962Z,67.30
2023-04-14T10:49:41.972Z,67.36
2023-04-14T10:50:41.964Z,71.00
2023-04-14T10:51:41.967Z,67.87
2023-04-14T10:52:41.985Z,72.99
2023-04-14T10:53:41.974Z,74.35
2023-04-14T10:54:41.983Z,70.94
2023-04-14T10:55:51.699Z,70.37
2023-04-14T10:56:41.994Z,70.84
2023-04-14T10:57:42.005Z,70.75
2023-04-14T10:58:42.012Z,65.63
2023-04-14T10:59:42.012Z,63.42
2023-04-14T11:00:42.047Z,66.01
2023-04-14T11:01:42.037Z,69.61
2023-04-14T11:02:42.250Z,68.95
2023-04-14T11:03:42.304Z,69.13
2023-04-14T11:04:42.047Z,68.00
2023-04-14T11:05:42.078Z,68.29
2023-04-14T11:06:42.062Z,67.81
2023-04-14T11:07:42.057Z,68.41
2023-04-14T11:08:42.077Z,66.86
2023-04-14T11:09:42.074Z,65.25
2023-04-14T11:10:42.087Z,66.10
2023-04-14T11:11:42.088Z,68.95
2023-04-14T11:12:42.098Z,67.33
2023-04-14T11:13:42.099Z,66.77
2023-04-14T11:14:42.106Z,68.66
2023-04-14T11:15:42.117Z,68.29
2023-04-14T11:16:47.590Z,65.88
2023-04-14T11:17:42.230Z,69.52
2023-04-14T11:18:44.780Z,70.18
2023-04-14T11:19:42.134Z,71.51
2023-04-14T11:20:42.165Z,68.38
2023-04-14T11:21:42.172Z,66.04
2023-04-14T11:22:42.166Z,65.72
2023-04-14T11:23:42.170Z,68.51
2023-04-14T11:24:42.177Z,70.31
2023-04-14T11:25:42.199Z,66.99
2023-04-14T11:26:42.194Z,65.34
2023-04-14T11:27:42.196Z,69.04
2023-04-14T11:28:42.210Z,67.14
2023-04-14T11:29:42.207Z,67.52
2023-04-14T11:30:42.223Z,68.89
2023-04-14T11:31:42.243Z,70.88
2023-04-14T11:32:42.234Z,67.02
2023-04-14T11:33:42.666Z,65.37
2023-04-14T11:34:42.241Z,62.82
2023-04-14T11:35:42.248Z,61.93
2023-04-14T11:36:42.254Z,63.82
2023-04-14T11:37:42.293Z,65.85
2023-04-14T11:38:42.267Z,67.46
2023-04-14T11:39:42.276Z,63.48
2023-04-14T11:40:42.282Z,64.71
2023-04-14T11:41:42.297Z,63.45
2023-04-14T11:42:42.297Z,64.87
2023-04-14T11:43:42.305Z,66.33
2023-04-14T11:44:42.313Z,68.16
2023-04-14T11:45:42.373Z,64.87
2023-04-14T11:46:42.453Z,62.78
2023-04-14T11:47:42.371Z,69.08
2023-04-14T11:48:42.340Z,66.04
2023-04-14T11:49:42.345Z,65.00
2023-04-14T11:50:42.367Z,62.50
2023-04-14T11:51:42.376Z,62.69
2023-04-14T11:52:42.375Z,66.99
2023-04-14T11:53:42.393Z,66.42
2023-04-14T11:54:42.408Z,63.54
2023-04-14T11:55:42.390Z,65.37
2023-04-14T11:56:42.408Z,65.53
2023-04-14T11:57:42.404Z,65.66
2023-04-14T11:58:42.414Z,63.67
2023-04-14T11:59:42.421Z,64.05
2023-04-14T12:00:42.482Z,64.27
2023-04-14T12:01:42.435Z,62.08
2023-04-14T12:02:42.594Z,63.04
2023-04-14T12:03:42.673Z,66.77
2023-04-14T12:04:42.575Z,66.01
2023-04-14T12:05:42.555Z,61.52
2023-04-14T12:06:42.489Z,59.88
2023-04-14T12:07:42.486Z,63.42
2023-04-14T12:08:42.505Z,65.31
2023-04-14T12:09:42.509Z,65.73
2023-04-14T12:10:42.519Z,64.69
2023-04-14T12:11:42.508Z,62.40
2023-04-14T12:12:42.546Z,59.24
2023-04-14T12:13:42.523Z,59.62
2023-04-14T12:14:42.532Z,59.68
2023-04-14T12:15:42.721Z,63.60
2023-04-14T12:16:42.732Z,64.11
2023-04-14T12:17:42.656Z,65.73
2023-04-14T12:18:42.562Z,64.21
2023-04-14T12:19:42.570Z,59.20
2023-04-14T12:20:42.577Z,58.16
2023-04-14T12:21:42.585Z,57.09
2023-04-14T12:22:42.594Z,55.66
2023-04-14T12:23:42.608Z,57.09
2023-04-14T12:24:42.615Z,56.70
2023-04-14T12:25:42.635Z,57.81
2023-04-14T12:26:42.622Z,58.48
2023-04-14T12:27:42.626Z,60.13
2023-04-14T12:28:42.643Z,63.64
2023-04-14T12:29:42.640Z,60.10
2023-04-14T12:30:42.653Z,59.24
2023-04-14T12:31:42.680Z,62.21
2023-04-14T12:32:42.687Z,61.65
2023-04-14T12:33:42.692Z,60.53
2023-04-14T12:34:42.685Z,58.16
2023-04-14T12:35:42.697Z,56.13
2023-04-14T12:36:49.742Z,61.10
2023-04-14T12:37:42.713Z,56.92
2023-04-14T12:38:42.726Z,61.04
2023-04-14T12:39:42.725Z,54.38
2023-04-14T12:40:42.769Z,52.10
2023-04-14T12:41:42.915Z,51.89
2023-04-14T12:42:42.753Z,50.56
2023-04-14T12:43:42.756Z,51.17
2023-04-14T12:44:42.771Z,54.14
2023-04-14T12:45:42.785Z,56.39
2023-04-14T12:46:42.850Z,56.29
2023-04-14T12:47:42.840Z,58.13
2023-04-14T12:48:42.807Z,58.70
2023-04-14T12:49:42.824Z,59.87
2023-04-14T12:50:42.822Z,56.35
2023-04-14T12:51:42.901Z,52.74
2023-04-14T12:52:42.839Z,55.02
2023-04-14T12:53:42.843Z,53.41